sensor_id;sensor_type;location;lat;lon;timestamp;P1;durP1;ratioP1;P2;durP2;ratioP2
33154;SDS011;19511;42.682;23.332;2023-07-16T00:00:02;17.70;;;6.03;;
33154;SDS011;19511;42.682;23.332;2023-07-16T00:02:33;11.93;;;6.28;;
33154;SDS011;19511;42.682;23.332;2023-07-16T00:04:58;10.02;;;5.85;;
33154;SDS011;19511;42.682;23.332;2023-07-16T00:07:24;12.18;;;5.70;;
33154;SDS011;19511;42.682;23.332;2023-07-16T00:09:49;10.65;;;5.75;;
33154;SDS011;19511;42.682;23.332;2023-07-16T00:12:15;18.20;;;6.32;;
33154;SDS011;19511;42.682;23.332;2023-07-16T00:14:40;12.13;;;5.35;;
33154;SDS011;19511;42.682;23.332;2023-07-16T00:17:05;12.13;;;5.97;;
33154;SDS011;19511;42.682;23.332;2023-07-16T00:19:31;11.70;;;6.13;;
33154;SDS011;19511;42.682;23.332;2023-07-16T00:21:56;10.70;;;5.25;;
33154;SDS011;19511;42.682;23.332;2023-07-16T00:24:22;12.07;;;6.18;;
33154;SDS011;19511;42.682;23.332;2023-07-16T00:26:47;10.35;;;5.55;;
33154;SDS011;19511;42.682;23.332;2023-07-16T00:29:12;10.05;;;5.15;;
33154;SDS011;19511;42.682;23.332;2023-07-16T00:31:41;11.32;;;5.65;;
33154;SDS011;19511;42.682;23.332;2023-07-16T00:34:07;8.40;;;5.10;;
33154;SDS011;19511;42.682;23.332;2023-07-16T00:36:32;9.63;;;5.25;;
33154;SDS011;19511;42.682;23.332;2023-07-16T00:38:58;12.43;;;5.15;;
33154;SDS011;19511;42.682;23.332;2023-07-16T00:41:26;7.88;;;4.75;;
33154;SDS011;19511;42.682;23.332;2023-07-16T00:43:51;15.77;;;4.47;;
33154;SDS011;19511;42.682;23.332;2023-07-16T00:46:19;10.10;;;4.88;;
33154;SDS011;19511;42.682;23.332;2023-07-16T00:48:47;9.55;;;4.72;;
33154;SDS011;19511;42.682;23.332;2023-07-16T00:51:13;6.63;;;4.20;;
33154;SDS011;19511;42.682;23.332;2023-07-16T00:53:42;15.52;;;4.78;;
33154;SDS011;19511;42.682;23.332;2023-07-16T00:56:09;8.40;;;4.65;;
33154;SDS011;19511;42.682;23.332;2023-07-16T00:58:35;7.05;;;4.57;;
33154;SDS011;19511;42.682;23.332;2023-07-16T01:01:01;8.90;;;4.47;;
33154;SDS011;19511;42.682;23.332;2023-07-16T01:03:26;13.90;;;5.03;;
33154;SDS011;19511;42.682;23.332;2023-07-16T01:11:08;10.55;;;4.53;;
33154;SDS011;19511;42.682;23.332;2023-07-16T01:13:38;6.10;;;3.85;;
33154;SDS011;19511;42.682;23.332;2023-07-16T01:16:21;9.10;;;4.43;;
33154;SDS011;19511;42.682;23.332;2023-07-16T01:18:47;7.00;;;4.25;;
33154;SDS011;19511;42.682;23.332;2023-07-16T01:21:13;13.50;;;4.50;;
33154;SDS011;19511;42.682;23.332;2023-07-16T01:26:32;14.38;;;3.75;;
33154;SDS011;19511;42.682;23.332;2023-07-16T01:29:54;6.38;;;3.92;;
33154;SDS011;19511;42.682;23.332;2023-07-16T01:32:05;12.30;;;4.10;;
33154;SDS011;19511;42.682;23.332;2023-07-16T01:34:32;7.60;;;3.58;;
33154;SDS011;19511;42.682;23.332;2023-07-16T01:37:00;6.28;;;4.05;;
33154;SDS011;19511;42.682;23.332;2023-07-16T01:39:30;5.40;;;3.30;;
33154;SDS011;19511;42.682;23.332;2023-07-16T01:41:57;6.68;;;3.70;;
33154;SDS011;19511;42.682;23.332;2023-07-16T01:44:23;7.20;;;3.83;;
33154;SDS011;19511;42.682;23.332;2023-07-16T01:46:52;9.27;;;4.43;;
33154;SDS011;19511;42.682;23.332;2023-07-16T01:49:29;7.55;;;4.00;;
33154;SDS011;19511;42.682;23.332;2023-07-16T01:51:54;10.38;;;3.50;;
33154;SDS011;19511;42.682;23.332;2023-07-16T01:54:19;14.57;;;3.85;;
33154;SDS011;19511;42.682;23.332;2023-07-16T01:56:45;4.93;;;3.40;;
33154;SDS011;19511;42.682;23.332;2023-07-16T01:59:10;7.50;;;4.28;;
33154;SDS011;19511;42.682;23.332;2023-07-16T02:01:36;9.10;;;4.03;;
33154;SDS011;19511;42.682;23.332;2023-07-16T02:04:05;7.00;;;4.22;;
33154;SDS011;19511;42.682;23.332;2023-07-16T02:06:32;13.70;;;4.18;;
33154;SDS011;19511;42.682;23.332;2023-07-16T02:08:57;12.07;;;4.70;;
33154;SDS011;19511;42.682;23.332;2023-07-16T02:11:23;7.30;;;4.50;;
33154;SDS011;19511;42.682;23.332;2023-07-16T02:13:48;12.73;;;4.25;;
33154;SDS011;19511;42.682;23.332;2023-07-16T02:16:13;8.38;;;4.25;;
33154;SDS011;19511;42.682;23.332;2023-07-16T02:18:39;6.75;;;4.53;;
33154;SDS011;19511;42.682;23.332;2023-07-16T02:21:06;14.32;;;4.90;;
33154;SDS011;19511;42.682;23.332;2023-07-16T02:23:32;7.25;;;4.18;;
33154;SDS011;19511;42.682;23.332;2023-07-16T02:25:57;10.57;;;4.93;;
33154;SDS011;19511;42.682;23.332;2023-07-16T02:28:23;8.38;;;4.03;;
33154;SDS011;19511;42.682;23.332;2023-07-16T02:30:49;10.05;;;4.75;;
33154;SDS011;19511;42.682;23.332;2023-07-16T02:33:15;11.02;;;4.68;;
33154;SDS011;19511;42.682;23.332;2023-07-16T02:35:45;14.25;;;5.60;;
33154;SDS011;19511;42.682;23.332;2023-07-16T02:40:44;7.15;;;4.00;;
33154;SDS011;19511;42.682;23.332;2023-07-16T02:43:10;8.40;;;4.38;;
33154;SDS011;19511;42.682;23.332;2023-07-16T02:45:36;7.85;;;3.90;;
33154;SDS011;19511;42.682;23.332;2023-07-16T02:48:01;6.90;;;3.78;;
33154;SDS011;19511;42.682;23.332;2023-07-16T02:50:27;14.27;;;4.20;;
33154;SDS011;19511;42.682;23.332;2023-07-16T02:52:52;17.55;;;4.55;;
33154;SDS011;19511;42.682;23.332;2023-07-16T02:55:18;9.88;;;4.15;;
33154;SDS011;19511;42.682;23.332;2023-07-16T02:57:43;7.13;;;3.80;;
33154;SDS011;19511;42.682;23.332;2023-07-16T03:00:13;8.32;;;3.38;;
33154;SDS011;19511;42.682;23.332;2023-07-16T03:02:38;9.15;;;4.07;;
33154;SDS011;19511;42.682;23.332;2023-07-16T03:05:04;5.50;;;3.88;;
33154;SDS011;19511;42.682;23.332;2023-07-16T03:07:29;9.90;;;3.70;;
33154;SDS011;19511;42.682;23.332;2023-07-16T03:09:55;25.92;;;4.30;;
33154;SDS011;19511;42.682;23.332;2023-07-16T03:12:20;6.30;;;3.70;;
33154;SDS011;19511;42.682;23.332;2023-07-16T03:14:46;6.10;;;3.50;;
33154;SDS011;19511;42.682;23.332;2023-07-16T03:17:12;23.33;;;4.18;;
33154;SDS011;19511;42.682;23.332;2023-07-16T03:19:37;5.60;;;3.22;;
33154;SDS011;19511;42.682;23.332;2023-07-16T03:22:03;10.85;;;4.03;;
33154;SDS011;19511;42.682;23.332;2023-07-16T03:24:29;5.18;;;3.47;;
33154;SDS011;19511;42.682;23.332;2023-07-16T03:26:54;10.60;;;4.22;;
33154;SDS011;19511;42.682;23.332;2023-07-16T03:29:20;8.70;;;3.60;;
33154;SDS011;19511;42.682;23.332;2023-07-16T03:31:45;6.95;;;3.83;;
33154;SDS011;19511;42.682;23.332;2023-07-16T03:34:10;6.22;;;3.25;;
33154;SDS011;19511;42.682;23.332;2023-07-16T03:36:36;10.27;;;3.72;;
33154;SDS011;19511;42.682;23.332;2023-07-16T03:39:01;10.43;;;4.13;;
33154;SDS011;19511;42.682;23.332;2023-07-16T03:41:27;7.35;;;4.15;;
33154;SDS011;19511;42.682;23.332;2023-07-16T03:43:53;6.65;;;4.20;;
33154;SDS011;19511;42.682;23.332;2023-07-16T03:46:18;11.32;;;4.45;;
33154;SDS011;19511;42.682;23.332;2023-07-16T03:48:44;6.60;;;4.25;;
33154;SDS011;19511;42.682;23.332;2023-07-16T03:51:10;6.80;;;3.75;;
33154;SDS011;19511;42.682;23.332;2023-07-16T03:53:35;8.07;;;4.57;;
33154;SDS011;19511;42.682;23.332;2023-07-16T03:56:04;7.32;;;3.53;;
33154;SDS011;19511;42.682;23.332;2023-07-16T03:58:30;8.20;;;3.80;;
33154;SDS011;19511;42.682;23.332;2023-07-16T04:00:55;6.07;;;4.20;;
33154;SDS011;19511;42.682;23.332;2023-07-16T04:03:21;6.93;;;3.50;;
33154;SDS011;19511;42.682;23.332;2023-07-16T04:05:46;5.78;;;3.78;;
33154;SDS011;19511;42.682;23.332;2023-07-16T04:08:12;8.80;;;4.45;;
33154;SDS011;19511;42.682;23.332;2023-07-16T04:10:41;8.35;;;3.95;;
33154;SDS011;19511;42.682;23.332;2023-07-16T04:13:06;14.40;;;4.15;;
33154;SDS011;19511;42.682;23.332;2023-07-16T04:15:32;8.18;;;4.18;;
33154;SDS011;19511;42.682;23.332;2023-07-16T04:17:57;9.25;;;3.90;;
33154;SDS011;19511;42.682;23.332;2023-07-16T04:20:23;5.47;;;3.72;;
33154;SDS011;19511;42.682;23.332;2023-07-16T04:22:48;11.68;;;4.22;;
33154;SDS011;19511;42.682;23.332;2023-07-16T04:25:14;9.77;;;4.13;;
33154;SDS011;19511;42.682;23.332;2023-07-16T04:27:40;12.40;;;3.65;;
33154;SDS011;19511;42.682;23.332;2023-07-16T04:30:07;8.77;;;4.05;;
33154;SDS011;19511;42.682;23.332;2023-07-16T04:32:32;7.50;;;4.18;;
33154;SDS011;19511;42.682;23.332;2023-07-16T04:35:02;7.85;;;4.57;;
33154;SDS011;19511;42.682;23.332;2023-07-16T04:37:28;7.10;;;3.70;;
33154;SDS011;19511;42.682;23.332;2023-07-16T04:39:54;9.55;;;4.40;;
33154;SDS011;19511;42.682;23.332;2023-07-16T04:42:19;8.68;;;4.63;;
33154;SDS011;19511;42.682;23.332;2023-07-16T04:44:45;8.40;;;5.03;;
33154;SDS011;19511;42.682;23.332;2023-07-16T04:47:11;9.57;;;4.18;;
33154;SDS011;19511;42.682;23.332;2023-07-16T04:49:36;8.18;;;4.32;;
33154;SDS011;19511;42.682;23.332;2023-07-16T04:52:02;5.60;;;3.92;;
33154;SDS011;19511;42.682;23.332;2023-07-16T04:54:27;10.27;;;4.53;;
33154;SDS011;19511;42.682;23.332;2023-07-16T04:56:53;8.18;;;3.83;;
33154;SDS011;19511;42.682;23.332;2023-07-16T04:59:18;14.57;;;3.83;;
33154;SDS011;19511;42.682;23.332;2023-07-16T05:01:44;7.68;;;4.15;;
33154;SDS011;19511;42.682;23.332;2023-07-16T05:04:09;7.20;;;3.55;;
33154;SDS011;19511;42.682;23.332;2023-07-16T05:06:35;6.43;;;3.47;;
33154;SDS011;19511;42.682;23.332;2023-07-16T05:09:00;6.07;;;3.40;;
33154;SDS011;19511;42.682;23.332;2023-07-16T05:11:25;11.02;;;5.15;;
33154;SDS011;19511;42.682;23.332;2023-07-16T05:13:51;8.77;;;4.43;;
33154;SDS011;19511;42.682;23.332;2023-07-16T05:16:16;12.13;;;4.20;;
33154;SDS011;19511;42.682;23.332;2023-07-16T05:18:42;9.95;;;3.92;;
33154;SDS011;19511;42.682;23.332;2023-07-16T05:21:08;5.80;;;3.67;;
33154;SDS011;19511;42.682;23.332;2023-07-16T05:23:34;7.97;;;3.83;;
33154;SDS011;19511;42.682;23.332;2023-07-16T05:25:59;8.38;;;3.90;;
33154;SDS011;19511;42.682;23.332;2023-07-16T05:28:25;18.88;;;4.07;;
33154;SDS011;19511;42.682;23.332;2023-07-16T05:30:57;9.57;;;3.83;;
33154;SDS011;19511;42.682;23.332;2023-07-16T05:33:26;14.50;;;3.92;;
33154;SDS011;19511;42.682;23.332;2023-07-16T05:35:55;10.85;;;4.00;;
33154;SDS011;19511;42.682;23.332;2023-07-16T05:38:20;6.22;;;3.42;;
33154;SDS011;19511;42.682;23.332;2023-07-16T05:40:46;8.02;;;3.67;;
33154;SDS011;19511;42.682;23.332;2023-07-16T05:43:12;5.60;;;4.25;;
33154;SDS011;19511;42.682;23.332;2023-07-16T05:45:48;5.07;;;3.53;;
33154;SDS011;19511;42.682;23.332;2023-07-16T05:48:13;5.20;;;3.40;;
33154;SDS011;19511;42.682;23.332;2023-07-16T05:50:39;47.03;;;8.70;;
33154;SDS011;19511;42.682;23.332;2023-07-16T05:53:09;8.75;;;3.85;;
33154;SDS011;19511;42.682;23.332;2023-07-16T05:55:34;5.82;;;3.13;;
33154;SDS011;19511;42.682;23.332;2023-07-16T05:58:02;7.13;;;3.22;;
33154;SDS011;19511;42.682;23.332;2023-07-16T06:00:31;9.38;;;4.07;;
33154;SDS011;19511;42.682;23.332;2023-07-16T06:03:02;4.57;;;3.42;;
33154;SDS011;19511;42.682;23.332;2023-07-16T06:05:28;8.43;;;3.70;;
33154;SDS011;19511;42.682;23.332;2023-07-16T06:07:57;6.03;;;3.35;;
33154;SDS011;19511;42.682;23.332;2023-07-16T06:10:23;6.82;;;3.60;;
33154;SDS011;19511;42.682;23.332;2023-07-16T06:12:50;6.07;;;3.97;;
33154;SDS011;19511;42.682;23.332;2023-07-16T06:15:16;11.32;;;3.72;;
33154;SDS011;19511;42.682;23.332;2023-07-16T06:17:42;9.93;;;3.95;;
33154;SDS011;19511;42.682;23.332;2023-07-16T06:20:12;6.75;;;3.75;;
33154;SDS011;19511;42.682;23.332;2023-07-16T06:22:37;6.70;;;3.67;;
33154;SDS011;19511;42.682;23.332;2023-07-16T06:25:08;6.05;;;3.08;;
33154;SDS011;19511;42.682;23.332;2023-07-16T06:27:38;14.57;;;3.60;;
33154;SDS011;19511;42.682;23.332;2023-07-16T06:30:05;4.50;;;3.15;;
33154;SDS011;19511;42.682;23.332;2023-07-16T06:32:34;5.18;;;3.13;;
33154;SDS011;19511;42.682;23.332;2023-07-16T06:35:02;5.40;;;3.33;;
33154;SDS011;19511;42.682;23.332;2023-07-16T06:37:30;5.75;;;3.58;;
33154;SDS011;19511;42.682;23.332;2023-07-16T06:39:56;7.00;;;3.28;;
33154;SDS011;19511;42.682;23.332;2023-07-16T06:42:21;7.97;;;3.42;;
33154;SDS011;19511;42.682;23.332;2023-07-16T06:44:47;5.65;;;3.55;;
33154;SDS011;19511;42.682;23.332;2023-07-16T06:47:12;6.15;;;3.78;;
33154;SDS011;19511;42.682;23.332;2023-07-16T06:49:40;5.45;;;3.53;;
33154;SDS011;19511;42.682;23.332;2023-07-16T06:52:06;7.00;;;3.55;;
33154;SDS011;19511;42.682;23.332;2023-07-16T06:54:44;9.43;;;3.33;;
33154;SDS011;19511;42.682;23.332;2023-07-16T06:57:09;12.93;;;3.35;;
33154;SDS011;19511;42.682;23.332;2023-07-16T06:59:39;5.50;;;3.40;;
33154;SDS011;19511;42.682;23.332;2023-07-16T07:02:08;3.67;;;2.90;;
33154;SDS011;19511;42.682;23.332;2023-07-16T07:04:34;7.60;;;3.92;;
33154;SDS011;19511;42.682;23.332;2023-07-16T07:07:00;6.57;;;3.30;;
33154;SDS011;19511;42.682;23.332;2023-07-16T07:09:29;6.63;;;3.67;;
33154;SDS011;19511;42.682;23.332;2023-07-16T07:11:58;7.18;;;3.70;;
33154;SDS011;19511;42.682;23.332;2023-07-16T07:14:24;8.88;;;3.13;;
33154;SDS011;19511;42.682;23.332;2023-07-16T07:16:50;9.43;;;3.72;;
33154;SDS011;19511;42.682;23.332;2023-07-16T07:19:15;15.80;;;4.03;;
33154;SDS011;19511;42.682;23.332;2023-07-16T07:21:47;6.38;;;3.33;;
33154;SDS011;19511;42.682;23.332;2023-07-16T07:24:13;7.05;;;3.42;;
33154;SDS011;19511;42.682;23.332;2023-07-16T07:26:38;6.75;;;3.10;;
33154;SDS011;19511;42.682;23.332;2023-07-16T07:29:04;6.32;;;3.47;;
33154;SDS011;19511;42.682;23.332;2023-07-16T07:31:41;7.30;;;3.58;;
33154;SDS011;19511;42.682;23.332;2023-07-16T07:34:08;5.40;;;3.30;;
33154;SDS011;19511;42.682;23.332;2023-07-16T07:36:37;6.43;;;2.75;;
33154;SDS011;19511;42.682;23.332;2023-07-16T07:39:03;8.60;;;3.45;;
33154;SDS011;19511;42.682;23.332;2023-07-16T07:41:29;10.90;;;3.70;;
33154;SDS011;19511;42.682;23.332;2023-07-16T07:43:59;7.13;;;3.47;;
33154;SDS011;19511;42.682;23.332;2023-07-16T07:46:24;9.40;;;3.83;;
33154;SDS011;19511;42.682;23.332;2023-07-16T07:48:50;5.18;;;3.35;;
33154;SDS011;19511;42.682;23.332;2023-07-16T07:51:21;5.68;;;3.25;;
33154;SDS011;19511;42.682;23.332;2023-07-16T07:53:47;6.50;;;3.33;;
33154;SDS011;19511;42.682;23.332;2023-07-16T07:56:12;6.68;;;3.40;;
33154;SDS011;19511;42.682;23.332;2023-07-16T07:58:38;8.13;;;3.58;;
33154;SDS011;19511;42.682;23.332;2023-07-16T08:01:06;5.95;;;3.70;;
33154;SDS011;19511;42.682;23.332;2023-07-16T08:03:39;6.80;;;3.28;;
33154;SDS011;19511;42.682;23.332;2023-07-16T08:06:05;7.10;;;3.90;;
33154;SDS011;19511;42.682;23.332;2023-07-16T08:08:36;7.32;;;4.78;;
33154;SDS011;19511;42.682;23.332;2023-07-16T08:11:01;6.13;;;3.40;;
33154;SDS011;19511;42.682;23.332;2023-07-16T08:13:27;8.23;;;3.70;;
33154;SDS011;19511;42.682;23.332;2023-07-16T08:15:56;5.20;;;3.78;;
33154;SDS011;19511;42.682;23.332;2023-07-16T08:18:25;9.02;;;3.30;;
33154;SDS011;19511;42.682;23.332;2023-07-16T08:20:51;10.98;;;4.20;;
33154;SDS011;19511;42.682;23.332;2023-07-16T08:23:20;6.20;;;3.53;;
33154;SDS011;19511;42.682;23.332;2023-07-16T08:25:47;7.75;;;3.65;;
33154;SDS011;19511;42.682;23.332;2023-07-16T08:28:12;8.38;;;4.45;;
33154;SDS011;19511;42.682;23.332;2023-07-16T08:30:37;6.28;;;3.80;;
33154;SDS011;19511;42.682;23.332;2023-07-16T08:33:06;8.45;;;3.95;;
33154;SDS011;19511;42.682;23.332;2023-07-16T08:35:32;5.55;;;3.85;;
33154;SDS011;19511;42.682;23.332;2023-07-16T08:37:57;8.43;;;4.72;;
33154;SDS011;19511;42.682;23.332;2023-07-16T08:40:22;8.38;;;4.72;;
33154;SDS011;19511;42.682;23.332;2023-07-16T08:42:48;8.32;;;4.60;;
33154;SDS011;19511;42.682;23.332;2023-07-16T08:45:14;15.60;;;4.50;;
33154;SDS011;19511;42.682;23.332;2023-07-16T08:47:46;9.55;;;4.35;;
33154;SDS011;19511;42.682;23.332;2023-07-16T08:50:12;8.27;;;4.18;;
33154;SDS011;19511;42.682;23.332;2023-07-16T08:52:45;6.90;;;4.47;;
33154;SDS011;19511;42.682;23.332;2023-07-16T08:55:31;6.75;;;4.40;;
33154;SDS011;19511;42.682;23.332;2023-07-16T08:58:00;13.70;;;4.28;;
33154;SDS011;19511;42.682;23.332;2023-07-16T09:00:29;12.50;;;4.43;;
33154;SDS011;19511;42.682;23.332;2023-07-16T09:03:01;9.73;;;4.13;;
33154;SDS011;19511;42.682;23.332;2023-07-16T09:05:28;7.05;;;4.13;;
33154;SDS011;19511;42.682;23.332;2023-07-16T09:07:54;6.40;;;3.72;;
33154;SDS011;19511;42.682;23.332;2023-07-16T09:10:23;7.95;;;4.13;;
33154;SDS011;19511;42.682;23.332;2023-07-16T09:12:52;7.90;;;4.50;;
33154;SDS011;19511;42.682;23.332;2023-07-16T09:15:24;11.80;;;4.60;;
33154;SDS011;19511;42.682;23.332;2023-07-16T09:17:53;8.10;;;4.63;;
33154;SDS011;19511;42.682;23.332;2023-07-16T09:20:29;9.88;;;4.78;;
33154;SDS011;19511;42.682;23.332;2023-07-16T09:22:56;13.77;;;5.13;;
33154;SDS011;19511;42.682;23.332;2023-07-16T09:25:35;7.28;;;4.03;;
33154;SDS011;19511;42.682;23.332;2023-07-16T09:28:05;7.68;;;4.63;;
33154;SDS011;19511;42.682;23.332;2023-07-16T09:30:31;9.02;;;4.18;;
33154;SDS011;19511;42.682;23.332;2023-07-16T09:35:52;9.32;;;4.50;;
33154;SDS011;19511;42.682;23.332;2023-07-16T09:38:18;9.93;;;5.38;;
33154;SDS011;19511;42.682;23.332;2023-07-16T09:40:44;15.82;;;5.38;;
33154;SDS011;19511;42.682;23.332;2023-07-16T09:43:11;8.32;;;5.07;;
33154;SDS011;19511;42.682;23.332;2023-07-16T09:45:37;9.55;;;4.97;;
33154;SDS011;19511;42.682;23.332;2023-07-16T09:48:03;10.25;;;5.75;;
33154;SDS011;19511;42.682;23.332;2023-07-16T09:50:31;9.75;;;5.38;;
33154;SDS011;19511;42.682;23.332;2023-07-16T09:52:59;10.15;;;5.30;;
33154;SDS011;19511;42.682;23.332;2023-07-16T09:55:25;12.27;;;5.60;;
33154;SDS011;19511;42.682;23.332;2023-07-16T09:57:55;10.63;;;5.28;;
33154;SDS011;19511;42.682;23.332;2023-07-16T10:00:22;9.85;;;6.05;;
33154;SDS011;19511;42.682;23.332;2023-07-16T10:02:49;13.23;;;6.05;;
33154;SDS011;19511;42.682;23.332;2023-07-16T10:07:55;8.02;;;4.70;;
33154;SDS011;19511;42.682;23.332;2023-07-16T10:10:25;8.95;;;5.63;;
33154;SDS011;19511;42.682;23.332;2023-07-16T10:13:02;11.65;;;5.32;;
33154;SDS011;19511;42.682;23.332;2023-07-16T10:15:28;8.82;;;4.78;;
33154;SDS011;19511;42.682;23.332;2023-07-16T10:17:57;17.42;;;5.03;;
33154;SDS011;19511;42.682;23.332;2023-07-16T10:20:29;9.38;;;5.18;;
33154;SDS011;19511;42.682;23.332;2023-07-16T10:23:18;20.05;;;5.75;;
33154;SDS011;19511;42.682;23.332;2023-07-16T10:25:59;11.00;;;5.70;;
33154;SDS011;19511;42.682;23.332;2023-07-16T10:28:26;10.43;;;5.43;;
33154;SDS011;19511;42.682;23.332;2023-07-16T10:30:51;14.02;;;6.38;;
33154;SDS011;19511;42.682;23.332;2023-07-16T10:33:17;7.90;;;5.00;;
33154;SDS011;19511;42.682;23.332;2023-07-16T10:35:44;15.38;;;5.70;;
33154;SDS011;19511;42.682;23.332;2023-07-16T10:38:10;7.30;;;4.88;;
33154;SDS011;19511;42.682;23.332;2023-07-16T10:40:43;14.02;;;5.65;;
33154;SDS011;19511;42.682;23.332;2023-07-16T10:43:09;7.00;;;4.63;;
33154;SDS011;19511;42.682;23.332;2023-07-16T10:45:35;7.60;;;4.28;;
33154;SDS011;19511;42.682;23.332;2023-07-16T10:48:04;6.57;;;5.35;;
33154;SDS011;19511;42.682;23.332;2023-07-16T10:50:33;10.57;;;4.93;;
33154;SDS011;19511;42.682;23.332;2023-07-16T10:52:59;7.15;;;4.70;;
33154;SDS011;19511;42.682;23.332;2023-07-16T10:55:26;9.05;;;5.72;;
33154;SDS011;19511;42.682;23.332;2023-07-16T10:57:53;10.70;;;5.53;;
33154;SDS011;19511;42.682;23.332;2023-07-16T11:00:26;10.02;;;5.90;;
33154;SDS011;19511;42.682;23.332;2023-07-16T11:02:51;16.40;;;6.25;;
33154;SDS011;19511;42.682;23.332;2023-07-16T11:05:17;11.15;;;5.18;;
33154;SDS011;19511;42.682;23.332;2023-07-16T11:07:44;10.73;;;5.75;;
33154;SDS011;19511;42.682;23.332;2023-07-16T11:10:15;9.50;;;5.72;;
33154;SDS011;19511;42.682;23.332;2023-07-16T11:12:41;10.32;;;5.18;;
33154;SDS011;19511;42.682;23.332;2023-07-16T11:15:07;11.38;;;5.53;;
33154;SDS011;19511;42.682;23.332;2023-07-16T11:17:33;9.60;;;5.15;;
33154;SDS011;19511;42.682;23.332;2023-07-16T11:19:59;16.50;;;5.88;;
33154;SDS011;19511;42.682;23.332;2023-07-16T11:22:31;10.13;;;5.63;;
33154;SDS011;19511;42.682;23.332;2023-07-16T11:25:13;8.93;;;5.57;;
33154;SDS011;19511;42.682;23.332;2023-07-16T11:27:40;11.63;;;4.43;;
33154;SDS011;19511;42.682;23.332;2023-07-16T11:30:06;13.65;;;4.88;;
33154;SDS011;19511;42.682;23.332;2023-07-16T11:35:17;14.68;;;5.90;;
33154;SDS011;19511;42.682;23.332;2023-07-16T11:37:49;13.98;;;5.38;;
33154;SDS011;19511;42.682;23.332;2023-07-16T11:40:18;9.65;;;4.97;;
33154;SDS011;19511;42.682;23.332;2023-07-16T11:42:45;13.25;;;5.30;;
33154;SDS011;19511;42.682;23.332;2023-07-16T11:45:18;8.80;;;5.43;;
33154;SDS011;19511;42.682;23.332;2023-07-16T11:47:51;8.48;;;5.43;;
33154;SDS011;19511;42.682;23.332;2023-07-16T11:52:56;8.82;;;5.72;;
33154;SDS011;19511;42.682;23.332;2023-07-16T11:55:27;9.55;;;5.03;;
33154;SDS011;19511;42.682;23.332;2023-07-16T11:58:00;11.43;;;5.20;;
33154;SDS011;19511;42.682;23.332;2023-07-16T12:00:30;13.17;;;5.90;;
33154;SDS011;19511;42.682;23.332;2023-07-16T12:02:56;9.00;;;4.80;;
33154;SDS011;19511;42.682;23.332;2023-07-16T12:05:26;9.27;;;5.32;;
33154;SDS011;19511;42.682;23.332;2023-07-16T12:07:53;8.80;;;4.78;;
33154;SDS011;19511;42.682;23.332;2023-07-16T12:10:19;9.77;;;5.72;;
33154;SDS011;19511;42.682;23.332;2023-07-16T12:12:49;14.45;;;5.22;;
33154;SDS011;19511;42.682;23.332;2023-07-16T12:15:14;9.77;;;4.78;;
33154;SDS011;19511;42.682;23.332;2023-07-16T12:17:41;10.40;;;4.80;;
33154;SDS011;19511;42.682;23.332;2023-07-16T12:20:10;7.90;;;4.85;;
33154;SDS011;19511;42.682;23.332;2023-07-16T12:22:39;7.95;;;4.70;;
33154;SDS011;19511;42.682;23.332;2023-07-16T12:25:09;6.22;;;4.60;;
33154;SDS011;19511;42.682;23.332;2023-07-16T12:27:34;8.13;;;4.95;;
33154;SDS011;19511;42.682;23.332;2023-07-16T12:30:00;14.38;;;5.00;;
33154;SDS011;19511;42.682;23.332;2023-07-16T12:32:25;7.80;;;5.07;;
33154;SDS011;19511;42.682;23.332;2023-07-16T12:34:54;10.20;;;4.40;;
33154;SDS011;19511;42.682;23.332;2023-07-16T12:37:25;13.07;;;5.55;;
33154;SDS011;19511;42.682;23.332;2023-07-16T12:39:51;13.65;;;4.72;;
33154;SDS011;19511;42.682;23.332;2023-07-16T12:42:17;8.60;;;4.85;;
33154;SDS011;19511;42.682;23.332;2023-07-16T12:44:47;10.60;;;5.57;;
33154;SDS011;19511;42.682;23.332;2023-07-16T12:47:15;10.15;;;5.00;;
33154;SDS011;19511;42.682;23.332;2023-07-16T12:49:50;8.98;;;4.57;;
33154;SDS011;19511;42.682;23.332;2023-07-16T12:52:17;8.77;;;4.60;;
33154;SDS011;19511;42.682;23.332;2023-07-16T12:54:42;7.57;;;4.25;;
33154;SDS011;19511;42.682;23.332;2023-07-16T12:57:08;7.03;;;4.30;;
33154;SDS011;19511;42.682;23.332;2023-07-16T12:59:37;10.73;;;4.97;;
33154;SDS011;19511;42.682;23.332;2023-07-16T13:02:06;12.85;;;4.68;;
33154;SDS011;19511;42.682;23.332;2023-07-16T13:04:36;14.95;;;4.43;;
33154;SDS011;19511;42.682;23.332;2023-07-16T13:07:09;9.25;;;5.00;;
33154;SDS011;19511;42.682;23.332;2023-07-16T13:09:41;7.28;;;4.55;;
33154;SDS011;19511;42.682;23.332;2023-07-16T13:12:06;8.93;;;5.03;;
33154;SDS011;19511;42.682;23.332;2023-07-16T13:14:32;14.30;;;5.13;;
33154;SDS011;19511;42.682;23.332;2023-07-16T13:17:00;8.55;;;4.00;;
33154;SDS011;19511;42.682;23.332;2023-07-16T13:19:32;7.60;;;4.65;;
33154;SDS011;19511;42.682;23.332;2023-07-16T13:22:01;10.00;;;4.30;;
33154;SDS011;19511;42.682;23.332;2023-07-16T13:24:26;11.38;;;4.45;;
33154;SDS011;19511;42.682;23.332;2023-07-16T13:26:54;11.95;;;4.78;;
33154;SDS011;19511;42.682;23.332;2023-07-16T13:29:19;7.53;;;5.05;;
33154;SDS011;19511;42.682;23.332;2023-07-16T13:31:51;9.23;;;5.63;;
33154;SDS011;19511;42.682;23.332;2023-07-16T13:34:17;10.38;;;4.35;;
33154;SDS011;19511;42.682;23.332;2023-07-16T13:36:43;9.93;;;5.20;;
33154;SDS011;19511;42.682;23.332;2023-07-16T13:39:08;17.23;;;4.65;;
33154;SDS011;19511;42.682;23.332;2023-07-16T13:41:34;9.02;;;5.07;;
33154;SDS011;19511;42.682;23.332;2023-07-16T13:44:07;7.65;;;4.40;;
33154;SDS011;19511;42.682;23.332;2023-07-16T13:46:39;7.32;;;4.50;;
33154;SDS011;19511;42.682;23.332;2023-07-16T13:49:05;6.38;;;5.00;;
33154;SDS011;19511;42.682;23.332;2023-07-16T13:51:33;8.40;;;4.28;;
33154;SDS011;19511;42.682;23.332;2023-07-16T13:53:59;6.57;;;4.20;;
33154;SDS011;19511;42.682;23.332;2023-07-16T13:56:25;7.50;;;4.30;;
33154;SDS011;19511;42.682;23.332;2023-07-16T13:58:51;13.20;;;4.30;;
33154;SDS011;19511;42.682;23.332;2023-07-16T14:01:16;8.20;;;4.50;;
33154;SDS011;19511;42.682;23.332;2023-07-16T14:03:43;5.60;;;4.32;;
33154;SDS011;19511;42.682;23.332;2023-07-16T14:06:08;10.30;;;4.35;;
33154;SDS011;19511;42.682;23.332;2023-07-16T14:08:34;15.38;;;5.93;;
33154;SDS011;19511;42.682;23.332;2023-07-16T14:11:01;10.77;;;4.72;;
33154;SDS011;19511;42.682;23.332;2023-07-16T14:13:29;11.30;;;4.50;;
33154;SDS011;19511;42.682;23.332;2023-07-16T14:16:05;12.63;;;5.65;;
33154;SDS011;19511;42.682;23.332;2023-07-16T14:18:32;9.88;;;5.20;;
33154;SDS011;19511;42.682;23.332;2023-07-16T14:20:58;9.85;;;4.82;;
33154;SDS011;19511;42.682;23.332;2023-07-16T14:23:25;12.73;;;5.38;;
33154;SDS011;19511;42.682;23.332;2023-07-16T14:26:00;7.18;;;4.85;;
33154;SDS011;19511;42.682;23.332;2023-07-16T14:28:28;9.23;;;5.63;;
33154;SDS011;19511;42.682;23.332;2023-07-16T14:30:54;16.35;;;6.65;;
33154;SDS011;19511;42.682;23.332;2023-07-16T14:33:20;11.13;;;5.18;;
33154;SDS011;19511;42.682;23.332;2023-07-16T14:35:46;19.73;;;6.13;;
33154;SDS011;19511;42.682;23.332;2023-07-16T14:38:15;5.97;;;4.05;;
33154;SDS011;19511;42.682;23.332;2023-07-16T14:40:44;8.30;;;4.93;;
33154;SDS011;19511;42.682;23.332;2023-07-16T14:43:12;7.30;;;4.28;;
33154;SDS011;19511;42.682;23.332;2023-07-16T14:45:38;10.82;;;5.15;;
33154;SDS011;19511;42.682;23.332;2023-07-16T14:48:03;8.00;;;4.47;;
33154;SDS011;19511;42.682;23.332;2023-07-16T14:50:29;10.63;;;4.22;;
33154;SDS011;19511;42.682;23.332;2023-07-16T14:52:55;22.95;;;8.70;;